createdAt,value
2018-02-12T00:01:32.428Z,19.13
2018-02-12T00:03:59.246Z,15.67
2018-02-12T00:06:26.910Z,15.67
2018-02-12T00:08:53.693Z,15.93
2018-02-12T00:11:21.110Z,17.53
2018-02-12T00:13:47.865Z,16.30
2018-02-12T00:16:14.680Z,15.53
2018-02-12T00:18:41.434Z,16.70
2018-02-12T00:21:08.193Z,17.13
2018-02-12T00:23:34.933Z,17.67
2018-02-12T00:26:01.722Z,17.27
2018-02-12T00:28:28.501Z,17.40
2018-02-12T00:30:55.246Z,17.63
2018-02-12T00:33:24.202Z,15.77
2018-02-12T00:35:50.943Z,16.67
2018-02-12T00:38:18.505Z,15.87
2018-02-12T00:40:45.251Z,16.90
2018-02-12T00:43:12.039Z,15.87
2018-02-12T00:45:38.805Z,17.13
2018-02-12T00:48:05.577Z,17.70
2018-02-12T00:50:32.317Z,16.60
2018-02-12T00:52:59.191Z,17.13
2018-02-12T00:55:25.962Z,17.43
2018-02-12T00:57:52.724Z,17.47
2018-02-12T01:00:19.469Z,16.17
2018-02-12T01:02:46.221Z,15.63
2018-02-12T01:05:12.997Z,17.33
2018-02-12T01:07:39.738Z,16.97
2018-02-12T01:10:06.509Z,19.83
2018-02-12T01:12:33.281Z,19.40
2018-02-12T01:15:00.038Z,18.47
2018-02-12T01:17:26.793Z,19.20
2018-02-12T01:19:53.567Z,18.60
2018-02-12T01:22:20.337Z,17.87
2018-02-12T01:24:47.256Z,18.43
2018-02-12T01:27:13.997Z,18.53
2018-02-12T01:29:40.771Z,18.10
2018-02-12T01:32:07.557Z,17.67
2018-02-12T01:34:34.291Z,19.20
2018-02-12T01:37:01.065Z,17.97
2018-02-12T01:39:27.941Z,18.87
2018-02-12T01:41:54.676Z,19.07
2018-02-12T01:44:21.417Z,18.70
2018-02-12T01:46:48.178Z,18.63
2018-02-12T01:49:15.018Z,19.27
2018-02-12T01:51:41.913Z,18.50
2018-02-12T01:54:08.666Z,19.57
2018-02-12T01:56:35.438Z,19.07
2018-02-12T01:59:02.269Z,18.83
2018-02-12T02:01:29.018Z,18.80
2018-02-12T02:03:55.830Z,19.47
2018-02-12T02:06:22.604Z,18.73
2018-02-12T02:08:49.385Z,16.93
2018-02-12T02:11:16.146Z,18.47
2018-02-12T02:13:42.922Z,18.97
2018-02-12T02:16:09.701Z,17.63
2018-02-12T02:18:36.589Z,19.03
2018-02-12T02:21:03.507Z,17.97
2018-02-12T02:23:30.306Z,17.73
2018-02-12T02:25:57.057Z,18.73
2018-02-12T02:28:23.837Z,17.63
2018-02-12T02:30:50.613Z,19.07
2018-02-12T02:33:17.386Z,18.87
2018-02-12T02:35:49.086Z,18.00
2018-02-12T02:38:15.866Z,19.50
2018-02-12T02:40:42.588Z,19.27
2018-02-12T02:43:09.329Z,18.83
2018-02-12T02:45:36.067Z,16.73
2018-02-12T02:48:02.813Z,17.63
2018-02-12T02:50:29.583Z,16.37
2018-02-12T02:52:56.350Z,15.30
2018-02-12T02:55:23.133Z,15.70
2018-02-12T02:57:49.906Z,14.73
2018-02-12T03:00:16.658Z,14.83
2018-02-12T03:02:43.401Z,15.17
2018-02-12T03:05:10.157Z,16.43
2018-02-12T03:07:36.897Z,12.13
2018-02-12T03:10:03.672Z,11.10
2018-02-12T03:12:30.449Z,9.87
2018-02-12T03:14:57.197Z,7.90
2018-02-12T03:17:23.957Z,7.33
2018-02-12T03:19:50.721Z,6.60
2018-02-12T03:22:17.797Z,6.20
2018-02-12T03:24:44.785Z,7.47
2018-02-12T03:27:11.537Z,7.80
2018-02-12T03:29:38.396Z,7.33
2018-02-12T03:32:05.161Z,7.73
2018-02-12T03:34:31.945Z,7.80
2018-02-12T03:36:59.302Z,7.87
2018-02-12T03:39:26.070Z,7.97
2018-02-12T03:41:52.981Z,7.93
2018-02-12T03:44:19.862Z,7.50
2018-02-12T03:46:46.837Z,8.70
2018-02-12T03:49:13.881Z,8.57
2018-02-12T03:51:40.781Z,9.60
2018-02-12T03:54:07.742Z,9.83
2018-02-12T03:56:34.698Z,10.37
2018-02-12T03:59:01.706Z,8.77
2018-02-12T04:01:28.575Z,9.47
2018-02-12T04:03:55.405Z,8.37
2018-02-12T04:06:22.237Z,6.23
2018-02-12T04:08:49.040Z,7.67
2018-02-12T04:11:15.925Z,6.70
2018-02-12T04:13:42.914Z,8.10
2018-02-12T04:16:09.783Z,9.07
2018-02-12T04:18:36.717Z,8.37
2018-02-12T04:21:04.161Z,7.87
2018-02-12T04:23:31.173Z,8.10
2018-02-12T04:25:58.146Z,8.93
2018-02-12T04:28:25.099Z,7.90
2018-02-12T04:30:52.112Z,8.17
2018-02-12T04:33:19.136Z,8.53
2018-02-12T04:35:46.033Z,7.40
2018-02-12T04:38:12.950Z,7.77
2018-02-12T04:40:39.839Z,8.97
2018-02-12T04:43:06.856Z,7.97
2018-02-12T04:45:33.678Z,8.43
2018-02-12T04:48:00.502Z,7.30
2018-02-12T04:50:27.488Z,7.93
2018-02-12T04:52:54.540Z,7.77
2018-02-12T04:55:21.596Z,6.67
2018-02-12T04:57:48.587Z,8.33
2018-02-12T05:00:15.454Z,8.17
2018-02-12T05:02:42.285Z,7.63
2018-02-12T05:05:09.231Z,7.80
2018-02-12T05:07:36.199Z,7.40
2018-02-12T05:10:03.134Z,6.70
2018-02-12T05:12:30.033Z,7.90
2018-02-12T05:14:56.896Z,7.77
2018-02-12T05:17:23.720Z,7.93
2018-02-12T05:19:50.560Z,7.73
2018-02-12T05:22:17.368Z,7.53
2018-02-12T05:24:44.131Z,6.83
2018-02-12T05:27:10.913Z,7.27
2018-02-12T05:29:37.871Z,7.90
2018-02-12T05:32:04.615Z,7.93
2018-02-12T05:34:31.371Z,8.17
2018-02-12T05:36:58.110Z,8.40
2018-02-12T05:39:24.893Z,7.90
2018-02-12T05:41:51.664Z,7.73
2018-02-12T05:44:18.401Z,7.73
2018-02-12T05:46:45.205Z,8.60
2018-02-12T05:49:11.945Z,8.60
2018-02-12T05:51:38.703Z,9.40
2018-02-12T05:54:05.457Z,9.03
2018-02-12T05:56:32.235Z,9.27
2018-02-12T05:58:59.122Z,10.37
2018-02-12T06:01:25.917Z,11.63
2018-02-12T06:03:52.693Z,12.47
2018-02-12T06:06:19.542Z,12.33
2018-02-12T06:08:46.329Z,12.80
2018-02-12T06:11:13.085Z,14.47
2018-02-12T06:13:39.874Z,13.87
2018-02-12T06:16:06.642Z,13.40
2018-02-12T06:18:33.392Z,16.97
2018-02-12T06:21:00.188Z,13.70
2018-02-12T06:23:26.951Z,14.63
2018-02-12T06:25:53.698Z,14.70
2018-02-12T06:28:20.934Z,14.47
2018-02-12T06:30:47.697Z,17.77
2018-02-12T06:33:14.437Z,16.53
2018-02-12T06:35:41.199Z,17.20
2018-02-12T06:38:07.995Z,17.20
2018-02-12T06:40:34.753Z,17.97
2018-02-12T06:43:01.485Z,17.47
2018-02-12T06:45:28.240Z,14.97
2018-02-12T06:47:55.197Z,13.50
2018-02-12T06:50:21.949Z,14.27
2018-02-12T06:52:48.703Z,13.60
2018-02-12T06:55:15.570Z,11.10
2018-02-12T06:57:42.318Z,11.43
2018-02-12T07:00:09.097Z,10.23
2018-02-12T07:02:35.865Z,10.97
2018-02-12T07:05:02.617Z,10.50
2018-02-12T07:07:29.372Z,10.37
2018-02-12T07:09:56.118Z,9.13
2018-02-12T07:12:23.478Z,10.10
2018-02-12T07:14:50.327Z,10.03
2018-02-12T07:17:17.075Z,10.17
2018-02-12T07:19:43.855Z,10.57
2018-02-12T07:22:10.618Z,10.73
2018-02-12T07:24:37.980Z,10.87
2018-02-12T07:27:04.825Z,9.70
2018-02-12T07:29:31.574Z,9.93
2018-02-12T07:31:58.326Z,8.33
2018-02-12T07:34:25.102Z,8.57
2018-02-12T07:36:51.880Z,10.13
2018-02-12T07:39:18.629Z,9.27
2018-02-12T07:41:45.383Z,10.17
2018-02-12T07:44:12.256Z,8.97
2018-02-12T07:46:39.186Z,9.63
2018-02-12T07:49:05.990Z,8.73
2018-02-12T07:51:32.822Z,8.83
2018-02-12T07:53:59.566Z,8.60
2018-02-12T07:56:26.316Z,10.13
2018-02-12T07:58:53.146Z,9.47
2018-02-12T08:01:20.293Z,9.83
2018-02-12T08:03:47.052Z,9.33
2018-02-12T08:06:13.822Z,8.90
2018-02-12T08:08:40.570Z,8.20
2018-02-12T08:11:07.353Z,9.87
2018-02-12T08:13:34.313Z,10.00
2018-02-12T08:16:01.114Z,10.07
2018-02-12T08:18:27.983Z,9.43
2018-02-12T08:20:54.726Z,10.10
2018-02-12T08:23:21.467Z,8.00
2018-02-12T08:25:48.226Z,8.20
2018-02-12T08:28:14.998Z,6.90
2018-02-12T08:30:41.757Z,5.97
2018-02-12T08:33:08.502Z,5.17
2018-02-12T08:35:35.256Z,4.90
2018-02-12T08:38:03.988Z,4.50
2018-02-12T08:40:30.745Z,4.07
2018-02-12T08:42:57.482Z,4.50
2018-02-12T08:45:24.380Z,4.60
2018-02-12T08:47:51.280Z,4.33
2018-02-12T08:50:18.939Z,4.33
2018-02-12T08:52:45.932Z,3.80
2018-02-12T08:55:12.726Z,5.07
2018-02-12T08:57:39.453Z,4.83
2018-02-12T09:00:06.207Z,4.03
2018-02-12T09:02:32.966Z,4.53
2018-02-12T09:05:00.664Z,4.30
2018-02-12T09:07:27.438Z,4.73
2018-02-12T09:09:54.158Z,4.50
2018-02-12T09:12:20.910Z,4.17
2018-02-12T09:14:47.661Z,3.27
2018-02-12T09:17:14.717Z,4.03
2018-02-12T09:19:42.095Z,4.53
2018-02-12T09:22:09.016Z,4.70
2018-02-12T09:24:36.339Z,4.47
2018-02-12T09:27:03.093Z,3.93
2018-02-12T09:29:29.866Z,4.67
2018-02-12T09:31:56.810Z,5.00
2018-02-12T09:34:23.585Z,5.20
2018-02-12T09:36:50.333Z,6.10
2018-02-12T09:39:17.231Z,5.00
2018-02-12T09:41:43.982Z,5.50
2018-02-12T09:44:11.517Z,5.00
2018-02-12T09:46:38.333Z,5.43
2018-02-12T09:49:05.866Z,5.90
2018-02-12T09:51:32.630Z,5.00
2018-02-12T09:53:59.509Z,5.57
2018-02-12T09:56:26.370Z,4.23
2018-02-12T09:58:53.179Z,4.60
2018-02-12T10:01:19.972Z,4.60
2018-02-12T10:03:46.705Z,3.90
2018-02-12T10:06:17.006Z,4.53
2018-02-12T10:08:43.745Z,4.30
2018-02-12T10:11:12.310Z,4.13
2018-02-12T10:13:39.049Z,3.97
2018-02-12T10:16:05.995Z,3.77
2018-02-12T10:18:32.729Z,4.00
2018-02-12T10:20:59.518Z,3.80
2018-02-12T10:23:26.288Z,3.77
2018-02-12T10:25:53.202Z,4.43
2018-02-12T10:28:19.954Z,3.57
2018-02-12T10:30:46.704Z,4.30
2018-02-12T10:33:13.453Z,4.17
2018-02-12T10:35:40.211Z,4.73
2018-02-12T10:38:06.981Z,2.87
2018-02-12T10:40:33.720Z,2.97
2018-02-12T10:43:00.470Z,2.73
2018-02-12T10:45:27.393Z,2.50
2018-02-12T10:47:54.139Z,2.90
2018-02-12T10:50:20.917Z,2.50
2018-02-12T10:52:47.710Z,3.10
2018-02-12T10:55:14.512Z,4.40
2018-02-12T10:57:41.444Z,2.83
2018-02-12T11:00:08.275Z,3.30
2018-02-12T11:02:35.023Z,2.80
2018-02-12T11:05:01.814Z,3.20
2018-02-12T11:07:28.723Z,3.47
2018-02-12T11:09:55.530Z,2.93
2018-02-12T11:12:22.278Z,3.57
2018-02-12T11:14:49.030Z,3.80
2018-02-12T11:17:16.041Z,3.37
2018-02-12T11:19:42.791Z,4.00
2018-02-12T11:22:09.588Z,3.80
2018-02-12T11:24:36.412Z,4.03
2018-02-12T11:27:03.242Z,3.70
2018-02-12T11:29:30.027Z,4.17
2018-02-12T11:31:56.772Z,5.00
2018-02-12T11:34:23.689Z,4.60
2018-02-12T11:36:50.433Z,4.20
2018-02-12T11:39:17.203Z,4.73
2018-02-12T11:41:44.102Z,2.57
2018-02-12T11:44:10.890Z,3.33
2018-02-12T11:46:38.017Z,4.00
2018-02-12T11:49:05.602Z,4.10
2018-02-12T11:51:32.485Z,3.70
2018-02-12T11:53:59.235Z,4.20
2018-02-12T11:56:26.203Z,4.43
2018-02-12T11:58:53.413Z,9.27
2018-02-12T12:01:20.266Z,8.17
2018-02-12T12:03:47.028Z,11.90
2018-02-12T12:06:13.811Z,5.37
2018-02-12T12:08:40.643Z,3.73
2018-02-12T12:11:07.490Z,4.90
2018-02-12T12:13:34.542Z,6.13
2018-02-12T12:16:01.494Z,6.97
2018-02-12T12:18:28.391Z,5.63
2018-02-12T12:20:55.464Z,6.23
2018-02-12T12:23:22.279Z,4.57
2018-02-12T12:25:49.144Z,2.30
2018-02-12T12:28:16.073Z,3.63
2018-02-12T12:30:42.934Z,3.40
2018-02-12T12:33:09.766Z,5.77
2018-02-12T12:35:36.635Z,4.70
2018-02-12T12:38:03.827Z,2.50
2018-02-12T12:40:32.408Z,3.10
2018-02-12T12:42:59.204Z,1.97
2018-02-12T12:45:26.053Z,2.77
2018-02-12T12:47:52.972Z,2.30
2018-02-12T12:50:29.657Z,3.40
2018-02-12T12:52:56.410Z,3.60
2018-02-12T12:55:23.227Z,3.37
2018-02-12T12:57:51.510Z,2.30
2018-02-12T13:00:18.253Z,3.43
2018-02-12T13:02:44.997Z,4.50
2018-02-12T13:05:11.775Z,4.37
2018-02-12T13:07:38.548Z,3.43
2018-02-12T13:10:05.315Z,3.77
2018-02-12T13:12:32.163Z,3.43
2018-02-12T13:14:58.949Z,3.17
2018-02-12T13:17:25.749Z,5.37
2018-02-12T13:19:52.558Z,3.17
2018-02-12T13:22:19.386Z,3.57
2018-02-12T13:24:46.185Z,2.87
2018-02-12T13:27:12.922Z,3.53
2018-02-12T13:29:40.463Z,3.83
2018-02-12T13:32:07.540Z,3.30
2018-02-12T13:34:34.281Z,4.23
2018-02-12T13:37:01.030Z,5.20
2018-02-12T13:39:27.785Z,4.17
2018-02-12T13:41:54.575Z,4.13
2018-02-12T13:44:21.387Z,3.27
2018-02-12T13:46:48.306Z,3.00
2018-02-12T13:49:15.244Z,2.13
2018-02-12T13:51:42.017Z,2.20
2018-02-12T13:54:08.794Z,3.00
2018-02-12T13:56:35.545Z,3.43
2018-02-12T13:59:02.305Z,3.87
2018-02-12T14:01:29.504Z,3.60
2018-02-12T14:03:56.242Z,2.23
2018-02-12T14:06:23.003Z,3.13
2018-02-12T14:08:49.749Z,4.43
2018-02-12T14:11:16.490Z,3.10
2018-02-12T14:13:43.246Z,2.17
2018-02-12T14:16:10.104Z,3.60
2018-02-12T14:18:36.894Z,3.10
2018-02-12T14:21:03.679Z,3.20
2018-02-12T14:23:30.462Z,3.20
2018-02-12T14:25:57.294Z,2.80
2018-02-12T14:28:24.101Z,3.53
2018-02-12T14:30:51.482Z,3.57
2018-02-12T14:33:18.420Z,2.63
2018-02-12T14:35:45.321Z,3.87
2018-02-12T14:40:45.085Z,5.47
2018-02-12T14:43:11.882Z,15.67
2018-02-12T14:45:38.897Z,5.77
2018-02-12T14:48:05.645Z,4.40
2018-02-12T14:50:32.407Z,4.23
2018-02-12T14:52:59.173Z,5.33
2018-02-12T14:55:25.946Z,3.70
2018-02-12T14:57:52.697Z,5.23
2018-02-12T15:00:19.474Z,3.77
2018-02-12T15:02:46.245Z,4.00
2018-02-12T15:05:12.997Z,3.90
2018-02-12T15:07:39.725Z,3.70
2018-02-12T15:10:06.491Z,3.10
2018-02-12T15:12:33.327Z,2.93
2018-02-12T15:15:00.082Z,2.90
2018-02-12T15:17:26.853Z,3.03
2018-02-12T15:19:53.635Z,2.80
2018-02-12T15:22:20.700Z,3.67
2018-02-12T15:24:47.441Z,3.50
2018-02-12T15:27:14.346Z,3.67
2018-02-12T15:29:41.113Z,3.30
2018-02-12T15:32:07.898Z,3.47
2018-02-12T15:34:34.634Z,3.40
2018-02-12T15:37:01.413Z,3.90
2018-02-12T15:39:28.167Z,3.63
2018-02-12T15:41:54.914Z,4.03
2018-02-12T15:44:21.650Z,3.93
2018-02-12T15:46:48.380Z,4.13
2018-02-12T15:49:15.554Z,7.60
2018-02-12T15:51:42.337Z,3.70
2018-02-12T15:54:09.093Z,4.63
2018-02-12T15:56:36.136Z,4.17
2018-02-12T15:59:02.996Z,4.60
2018-02-12T16:01:29.933Z,4.37
2018-02-12T16:03:56.695Z,5.23
2018-02-12T16:06:23.457Z,10.27
2018-02-12T16:08:50.257Z,18.83
2018-02-12T16:11:17.022Z,22.13
2018-02-12T16:13:43.778Z,10.77
2018-02-12T16:16:10.757Z,5.70
2018-02-12T16:18:37.526Z,6.27
2018-02-12T16:21:05.747Z,5.37
2018-02-12T16:23:32.485Z,8.13
2018-02-12T16:25:59.250Z,7.37
2018-02-12T16:28:26.314Z,6.90
2018-02-12T16:30:53.071Z,7.93
2018-02-12T16:33:19.827Z,13.53
2018-02-12T16:35:46.722Z,11.63
2018-02-12T16:38:13.557Z,12.83
2018-02-12T16:40:40.847Z,11.33
2018-02-12T16:43:07.623Z,8.23
2018-02-12T16:45:34.397Z,7.73
2018-02-12T16:48:01.169Z,8.63
2018-02-12T16:50:28.030Z,10.17
2018-02-12T16:52:54.798Z,13.17
2018-02-12T16:55:21.558Z,16.13
2018-02-12T16:57:48.382Z,11.73
2018-02-12T17:00:15.295Z,9.03
2018-02-12T17:02:43.540Z,14.53
2018-02-12T17:05:10.647Z,12.87
2018-02-12T17:07:37.710Z,12.60
2018-02-12T17:10:04.472Z,14.70
2018-02-12T17:12:31.289Z,15.53
2018-02-12T17:14:58.054Z,16.10
2018-02-12T17:17:26.151Z,17.10
2018-02-12T17:19:54.131Z,16.90
2018-02-12T17:22:20.934Z,13.90
2018-02-12T17:24:47.695Z,13.47
2018-02-12T17:27:15.429Z,13.23
2018-02-12T17:29:42.250Z,17.00
2018-02-12T17:32:08.998Z,15.73
2018-02-12T17:34:35.786Z,18.63
2018-02-12T17:37:02.573Z,21.07
2018-02-12T17:39:29.377Z,19.43
2018-02-12T17:41:56.284Z,16.97
2018-02-12T17:44:23.183Z,15.77
2018-02-12T17:46:50.052Z,17.80
2018-02-12T17:49:16.953Z,16.93
2018-02-12T17:51:43.730Z,17.60
2018-02-12T17:54:10.503Z,16.00
2018-02-12T17:56:37.282Z,17.77
2018-02-12T17:59:04.939Z,16.23
2018-02-12T18:01:31.736Z,15.23
2018-02-12T18:03:58.520Z,15.70
2018-02-12T18:06:25.353Z,15.93
2018-02-12T18:08:52.093Z,15.90
2018-02-12T18:11:18.874Z,14.57
2018-02-12T18:13:45.639Z,14.80
2018-02-12T18:16:13.315Z,13.97
2018-02-12T18:18:40.082Z,14.67
2018-02-12T18:21:06.912Z,14.53
2018-02-12T18:23:33.665Z,15.33
2018-02-12T18:26:00.422Z,14.20
2018-02-12T18:28:27.214Z,17.70
2018-02-12T18:30:54.121Z,18.37
2018-02-12T18:33:20.900Z,18.03
2018-02-12T18:35:48.354Z,19.10
2018-02-12T18:38:15.151Z,18.57
2018-02-12T18:40:41.905Z,19.50
2018-02-12T18:43:08.692Z,19.53
2018-02-12T18:45:35.637Z,19.13
2018-02-12T18:48:02.642Z,19.00
2018-02-12T18:50:29.405Z,19.67
2018-02-12T18:52:56.188Z,19.90
2018-02-12T18:55:23.027Z,18.63
2018-02-12T18:57:49.856Z,20.53
2018-02-12T19:00:16.810Z,23.23
2018-02-12T19:02:43.704Z,25.37
2018-02-12T19:05:10.481Z,24.77
2018-02-12T19:07:38.429Z,24.10
2018-02-12T19:10:05.357Z,25.17
2018-02-12T19:12:32.409Z,25.80
2018-02-12T19:14:59.364Z,26.67
2018-02-12T19:17:26.144Z,27.27
2018-02-12T19:19:53.102Z,27.90
2018-02-12T19:22:20.948Z,27.77
2018-02-12T19:24:47.858Z,27.97
2018-02-12T19:27:14.655Z,28.20
2018-02-12T19:29:41.418Z,26.00
2018-02-12T19:32:08.402Z,23.80
2018-02-12T19:34:35.972Z,24.37
2018-02-12T19:37:03.020Z,21.10
2018-02-12T19:39:29.786Z,21.43
2018-02-12T19:41:57.432Z,23.73
2018-02-12T19:44:24.210Z,23.80
2018-02-12T19:46:50.982Z,24.70
2018-02-12T19:49:18.777Z,26.37
2018-02-12T19:51:45.686Z,26.77
2018-02-12T19:54:12.462Z,30.10
2018-02-12T19:56:39.261Z,32.17
2018-02-12T19:59:06.033Z,31.00
2018-02-12T20:01:33.166Z,29.37
2018-02-12T20:04:01.805Z,30.40
2018-02-12T20:16:26.261Z,28.17
2018-02-12T20:18:55.871Z,37.57
2018-02-12T20:21:30.493Z,34.43
2018-02-12T20:23:57.411Z,28.43
2018-02-12T20:26:24.965Z,31.67
2018-02-12T20:28:51.723Z,32.70
2018-02-12T20:31:19.294Z,24.00
2018-02-12T20:33:46.103Z,20.87
2018-02-12T20:36:12.948Z,16.70
2018-02-12T20:38:39.720Z,15.03
2018-02-12T20:41:07.165Z,13.90
2018-02-12T20:43:34.100Z,18.90
2018-02-12T20:46:00.931Z,78.30
2018-02-12T20:48:27.721Z,28.77
2018-02-12T20:50:54.478Z,40.23
2018-02-12T20:53:21.297Z,32.20
2018-02-12T20:55:48.076Z,25.70
2018-02-12T20:58:14.841Z,28.73
2018-02-12T21:00:41.668Z,40.10
2018-02-12T21:03:08.450Z,18.70
2018-02-12T21:05:35.333Z,15.93
2018-02-12T21:08:02.820Z,15.13
2018-02-12T21:10:29.621Z,15.17
2018-02-12T21:13:00.437Z,12.37
2018-02-12T21:15:27.237Z,15.03
2018-02-12T21:17:56.259Z,16.27
2018-02-12T21:20:23.013Z,14.27
2018-02-12T21:22:49.767Z,18.20
2018-02-12T21:25:16.771Z,17.93
2018-02-12T21:27:43.537Z,17.23
2018-02-12T21:30:10.322Z,12.83
2018-02-12T21:32:37.085Z,14.00
2018-02-12T21:35:03.984Z,14.47
2018-02-12T21:37:30.926Z,17.37
2018-02-12T21:39:57.760Z,16.10
2018-02-12T21:42:24.546Z,18.93
2018-02-12T21:44:52.168Z,16.87
2018-02-12T21:47:20.766Z,18.00
2018-02-12T21:49:47.606Z,18.30
2018-02-12T21:52:15.702Z,16.27
2018-02-12T21:54:42.561Z,15.13
2018-02-12T21:57:09.321Z,15.53
2018-02-12T21:59:36.107Z,17.17
2018-02-12T22:02:02.873Z,16.27
2018-02-12T22:04:29.731Z,17.93
2018-02-12T22:06:56.494Z,17.03
2018-02-12T22:09:23.280Z,15.30
2018-02-12T22:11:50.031Z,15.00
2018-02-12T22:14:16.793Z,15.17
2018-02-12T22:16:43.538Z,14.07
2018-02-12T22:19:10.292Z,14.43
2018-02-12T22:21:37.187Z,12.67
2018-02-12T22:24:04.020Z,14.17
2018-02-12T22:26:31.616Z,13.63
2018-02-12T22:28:58.422Z,13.47
2018-02-12T22:31:25.176Z,14.03
2018-02-12T22:33:59.007Z,15.27
2018-02-12T22:36:25.851Z,13.90
2018-02-12T22:38:52.653Z,14.40
2018-02-12T22:41:19.616Z,13.13
2018-02-12T22:43:54.187Z,14.10
2018-02-12T22:46:21.995Z,12.27
2018-02-12T22:48:48.954Z,13.63
2018-02-12T22:51:20.031Z,14.70
2018-02-12T22:53:46.961Z,14.70
2018-02-12T22:56:13.766Z,13.97
2018-02-12T22:58:40.511Z,13.83
2018-02-12T23:01:07.300Z,13.33
2018-02-12T23:03:34.071Z,13.67
2018-02-12T23:06:01.620Z,15.33
2018-02-12T23:08:30.025Z,13.70
2018-02-12T23:10:57.018Z,13.97
2018-02-12T23:13:24.647Z,15.43
2018-02-12T23:15:51.410Z,14.40
2018-02-12T23:18:18.171Z,14.03
2018-02-12T23:20:44.922Z,14.77
2018-02-12T23:23:11.690Z,13.37
2018-02-12T23:25:38.441Z,13.57
2018-02-12T23:28:05.223Z,12.00
2018-02-12T23:30:32.039Z,11.47
2018-02-12T23:32:59.061Z,12.73
2018-02-12T23:35:25.849Z,11.27
2018-02-12T23:37:53.518Z,13.10
2018-02-12T23:40:20.569Z,13.17
2018-02-12T23:42:47.461Z,11.67
2018-02-12T23:45:14.214Z,13.87
2018-02-12T23:47:40.961Z,14.83
2018-02-12T23:50:07.711Z,13.13
2018-02-12T23:52:34.783Z,12.43
2018-02-12T23:55:01.591Z,12.27
2018-02-12T23:57:28.321Z,11.60
2018-02-12T23:59:55.077Z,13.83
